createdAt,value
2022-09-01T00:00:11.328Z,83.49
2022-09-01T00:02:40.484Z,83.91
2022-09-01T00:05:10.397Z,84.57
2022-09-01T00:07:39.471Z,84.35
2022-09-01T00:10:10.857Z,84.33
2022-09-01T00:12:40.539Z,84.76
2022-09-01T00:15:13.421Z,85.30
2022-09-01T00:17:42.520Z,84.84
2022-09-01T00:20:15.878Z,84.84
2022-09-01T00:22:47.478Z,86.00
2022-09-01T00:25:18.930Z,86.15
2022-09-01T00:27:48.112Z,86.77
2022-09-01T00:30:18.518Z,86.78
2022-09-01T00:32:48.321Z,87.76
2022-09-01T00:35:18.872Z,88.00
2022-09-01T00:37:47.926Z,89.29
2022-09-01T00:40:19.334Z,89.58
2022-09-01T00:42:49.434Z,90.05
2022-09-01T00:45:21.686Z,90.33
2022-09-01T00:47:52.129Z,90.80
2022-09-01T00:50:22.572Z,91.41
2022-09-01T00:52:54.160Z,91.74
2022-09-01T00:55:28.081Z,92.31
2022-09-01T00:57:57.670Z,91.97
2022-09-01T01:00:31.915Z,92.43
2022-09-01T01:03:01.622Z,92.61
2022-09-01T01:05:34.998Z,93.07
2022-09-01T01:08:06.295Z,92.86
2022-09-01T01:10:38.668Z,92.77
2022-09-01T01:13:10.433Z,92.52
2022-09-01T01:15:44.065Z,92.50
2022-09-01T01:18:13.615Z,92.56
2022-09-01T01:21:01.088Z,92.76
2022-09-01T01:23:39.192Z,93.00
2022-09-01T01:26:11.171Z,93.06
2022-09-01T01:28:44.373Z,92.87
2022-09-01T01:31:15.510Z,92.69
2022-09-01T01:33:48.122Z,92.81
2022-09-01T01:36:21.648Z,92.67
2022-09-01T01:38:52.681Z,92.65
2022-09-01T01:41:24.305Z,92.38
2022-09-01T01:43:53.364Z,92.40
2022-09-01T01:46:23.369Z,92.61
2022-09-01T01:48:53.969Z,92.58
2022-09-01T01:51:26.864Z,91.82
2022-09-01T01:53:57.093Z,92.28
2022-09-01T01:56:28.142Z,92.31
2022-09-01T01:58:59.010Z,92.66
2022-09-01T02:01:32.229Z,92.46
2022-09-01T02:04:04.366Z,92.79
2022-09-01T02:06:37.036Z,93.06
2022-09-01T02:09:07.463Z,93.21
2022-09-01T02:11:38.018Z,93.12
2022-09-01T02:14:10.077Z,93.33
2022-09-01T02:16:39.217Z,93.29
2022-09-01T02:19:12.349Z,93.71
2022-09-01T02:21:44.680Z,93.51
2022-09-01T02:24:16.713Z,93.60
2022-09-01T02:26:49.041Z,94.26
2022-09-01T02:29:26.668Z,94.20
2022-09-01T02:31:56.718Z,94.70
2022-09-01T02:34:29.166Z,94.52
2022-09-01T02:36:59.092Z,94.70
2022-09-01T02:39:32.794Z,94.63
2022-09-01T02:42:03.366Z,95.17
2022-09-01T02:44:32.819Z,95.20
2022-09-01T02:47:05.640Z,95.10
2022-09-01T02:49:36.176Z,95.10
2022-09-01T02:52:06.363Z,95.29
2022-09-01T02:54:36.448Z,95.23
2022-09-01T02:57:09.172Z,97.01
2022-09-01T02:59:43.144Z,97.13
2022-09-01T03:02:12.529Z,97.81
2022-09-01T03:04:41.478Z,98.39
2022-09-01T03:07:13.866Z,98.09
2022-09-01T03:09:43.811Z,98.60
2022-09-01T03:12:14.121Z,98.19
2022-09-01T03:14:42.807Z,99.25
2022-09-01T03:17:12.084Z,100.00
2022-09-01T03:19:42.046Z,100.00
2022-09-01T03:22:11.144Z,100.00
2022-09-01T03:24:40.345Z,100.00
2022-09-01T03:27:11.819Z,100.00
2022-09-01T03:29:42.235Z,100.00
2022-09-01T03:32:11.674Z,100.00
2022-09-01T03:34:41.486Z,100.00
2022-09-01T03:37:12.311Z,100.00
2022-09-01T03:39:41.473Z,100.00
2022-09-01T03:42:12.677Z,100.00
2022-09-01T03:44:45.323Z,100.00
2022-09-01T03:47:17.261Z,100.00
2022-09-01T03:49:49.255Z,100.00
2022-09-01T03:52:18.476Z,100.00
2022-09-01T03:54:48.085Z,100.00
2022-09-01T03:57:17.718Z,100.00
2022-09-01T03:59:49.458Z,100.00
2022-09-01T04:02:18.702Z,100.00
2022-09-01T04:04:47.650Z,100.00
2022-09-01T04:07:19.367Z,100.00
2022-09-01T04:09:49.003Z,100.00
2022-09-01T04:12:17.988Z,100.00
2022-09-01T04:15:09.490Z,100.00
2022-09-01T04:17:56.898Z,100.00
2022-09-01T04:20:25.991Z,100.00
2022-09-01T04:22:55.452Z,100.00
2022-09-01T04:25:26.864Z,100.00
2022-09-01T04:27:57.143Z,100.00
2022-09-01T04:30:32.530Z,100.00
2022-09-01T04:33:02.635Z,100.00
2022-09-01T04:35:32.703Z,100.00
2022-09-01T04:38:08.379Z,100.00
2022-09-01T04:40:40.373Z,100.00
2022-09-01T04:43:10.140Z,100.00
2022-09-01T04:45:41.169Z,100.00
2022-09-01T04:48:10.547Z,100.00
2022-09-01T04:50:42.196Z,100.00
2022-09-01T04:53:33.015Z,100.00
2022-09-01T04:56:05.732Z,100.00
2022-09-01T04:58:38.902Z,100.00
2022-09-01T05:01:17.926Z,100.00
2022-09-01T05:03:48.237Z,100.00
2022-09-01T05:06:40.021Z,100.00
2022-09-01T05:09:10.028Z,100.00
2022-09-01T05:12:11.120Z,100.00
2022-09-01T05:14:48.880Z,100.00
2022-09-01T05:17:21.718Z,100.00
2022-09-01T05:19:52.184Z,100.00
2022-09-01T05:22:23.172Z,100.00
2022-09-01T05:25:13.265Z,99.31
2022-09-01T05:27:49.841Z,99.40
2022-09-01T05:30:21.607Z,98.50
2022-09-01T05:32:53.097Z,99.33
2022-09-01T05:35:24.804Z,97.79
2022-09-01T05:38:01.447Z,97.45
2022-09-01T05:40:30.373Z,95.51
2022-09-01T05:42:59.441Z,96.05
2022-09-01T05:45:36.352Z,96.41
2022-09-01T05:48:21.821Z,96.27
2022-09-01T05:50:52.809Z,97.78
2022-09-01T05:53:21.966Z,97.66
2022-09-01T05:56:15.178Z,98.35
2022-09-01T06:01:33.555Z,98.97
2022-09-01T06:04:06.554Z,99.90
2022-09-01T06:07:01.684Z,100.00
2022-09-01T06:09:29.976Z,100.00
2022-09-01T06:12:02.899Z,100.00
2022-09-01T06:14:31.918Z,100.00
2022-09-01T06:17:01.076Z,99.60
2022-09-01T06:19:37.251Z,99.89
2022-09-01T06:22:07.506Z,100.00
2022-09-01T06:24:36.914Z,100.00
2022-09-01T06:27:09.915Z,98.53
2022-09-01T06:29:39.908Z,98.14
2022-09-01T06:32:09.893Z,96.79
2022-09-01T06:34:44.720Z,96.91
2022-09-01T06:37:14.089Z,95.35
2022-09-01T06:39:46.036Z,95.56
2022-09-01T06:42:15.699Z,95.81
2022-09-01T06:44:58.263Z,96.34
2022-09-01T06:47:28.675Z,94.76
2022-09-01T06:49:59.566Z,95.00
2022-09-01T06:53:31.982Z,94.44
2022-09-01T06:55:19.735Z,93.77
2022-09-01T06:58:06.517Z,93.97
2022-09-01T07:00:57.967Z,93.31
2022-09-01T07:03:28.170Z,93.32
2022-09-01T07:09:20.075Z,92.16
2022-09-01T07:17:52.384Z,91.90
2022-09-01T07:20:25.860Z,90.91
2022-09-01T07:23:07.210Z,91.15
2022-09-01T07:28:36.878Z,91.01
2022-09-01T07:43:12.969Z,88.07
2022-09-01T07:46:38.707Z,87.40
2022-09-01T07:52:03.881Z,87.27
2022-09-01T07:54:34.070Z,84.65
2022-09-01T07:57:04.558Z,84.89
2022-09-01T07:59:36.757Z,82.84
2022-09-01T08:02:18.426Z,82.49
2022-09-01T08:04:50.199Z,80.76
2022-09-01T08:07:20.659Z,81.53
2022-09-01T08:09:49.647Z,81.63
2022-09-01T08:12:20.063Z,82.32
2022-09-01T08:17:52.015Z,82.74
2022-09-01T08:20:23.626Z,80.09
2022-09-01T08:23:10.875Z,76.89
2022-09-01T08:25:44.194Z,78.39
2022-09-01T08:28:16.155Z,78.09
2022-09-01T08:30:52.035Z,78.67
2022-09-01T08:33:26.156Z,75.11
2022-09-01T08:35:57.229Z,75.61
2022-09-01T08:38:28.147Z,74.04
2022-09-01T08:41:00.946Z,73.55
2022-09-01T08:43:51.658Z,72.75
2022-09-01T08:46:27.305Z,71.22
2022-09-01T08:52:23.224Z,70.37
2022-09-01T08:55:02.602Z,70.86
2022-09-01T08:57:35.654Z,69.55
2022-09-01T09:00:26.891Z,70.46
2022-09-01T09:03:12.177Z,69.99
2022-09-01T09:06:03.482Z,68.80
2022-09-01T09:08:53.367Z,68.11
2022-09-01T09:12:10.833Z,67.84
2022-09-01T09:14:57.875Z,66.99
2022-09-01T09:17:35.112Z,68.25
2022-09-01T09:20:06.146Z,68.63
2022-09-01T09:22:35.252Z,69.13
2022-09-01T09:25:09.316Z,69.05
2022-09-01T09:27:41.254Z,66.83
2022-09-01T09:30:15.849Z,66.28
2022-09-01T09:35:42.062Z,66.75
2022-09-01T09:38:23.927Z,65.76
2022-09-01T09:41:20.527Z,67.09
2022-09-01T09:43:58.952Z,66.35
2022-09-01T09:46:35.788Z,64.59
2022-09-01T09:49:26.341Z,64.20
2022-09-01T09:52:18.920Z,62.51
2022-09-01T09:55:04.620Z,61.81
2022-09-01T09:57:41.647Z,61.48
2022-09-01T10:00:28.203Z,61.96
2022-09-01T10:03:00.570Z,59.12
2022-09-01T10:05:44.188Z,58.61
2022-09-01T10:08:45.411Z,58.05
2022-09-01T10:11:35.433Z,57.19
2022-09-01T10:14:11.012Z,52.73
2022-09-01T10:16:44.915Z,51.17
2022-09-01T10:19:17.744Z,51.54
2022-09-01T10:21:48.149Z,49.50
2022-09-01T10:24:30.952Z,48.66
2022-09-01T10:27:06.068Z,50.00
2022-09-01T10:29:48.337Z,49.96
2022-09-01T10:32:49.190Z,51.69
2022-09-01T10:35:21.013Z,51.38
2022-09-01T10:37:52.036Z,50.88
2022-09-01T10:40:43.754Z,49.92
2022-09-01T10:43:38.374Z,47.71
2022-09-01T10:46:50.865Z,49.68
2022-09-01T10:50:07.470Z,49.95
2022-09-01T10:52:59.646Z,50.79
2022-09-01T10:55:38.593Z,50.87
2022-09-01T11:01:25.337Z,52.93
2022-09-01T11:04:04.853Z,53.29
2022-09-01T11:07:11.887Z,55.40
2022-09-01T11:09:43.796Z,54.24
2022-09-01T11:12:46.063Z,52.85
2022-09-01T11:15:35.569Z,53.04
2022-09-01T11:18:11.060Z,53.20
2022-09-01T11:20:41.699Z,51.62
2022-09-01T11:23:21.832Z,52.90
2022-09-01T11:28:44.779Z,52.63
2022-09-01T11:31:30.023Z,53.11
2022-09-01T11:34:14.420Z,53.02
2022-09-01T11:37:00.432Z,53.02
2022-09-01T11:39:50.082Z,53.11
2022-09-01T11:42:24.034Z,52.14
2022-09-01T11:45:02.516Z,52.97
2022-09-01T11:47:35.442Z,53.18
2022-09-01T11:50:08.116Z,52.08
2022-09-01T11:52:39.661Z,51.37
2022-09-01T11:55:11.573Z,52.53
2022-09-01T11:57:41.885Z,51.38
2022-09-01T12:00:26.181Z,51.34
2022-09-01T12:02:55.628Z,52.21
2022-09-01T12:05:31.951Z,50.55
2022-09-01T12:08:04.004Z,48.96
2022-09-01T12:10:36.420Z,50.00
2022-09-01T12:13:07.693Z,49.77
2022-09-01T12:16:00.552Z,49.13
2022-09-01T12:18:35.207Z,47.80
2022-09-01T12:21:07.981Z,46.48
2022-09-01T12:23:43.288Z,46.25
2022-09-01T12:26:15.822Z,46.23
2022-09-01T12:28:45.201Z,46.14
2022-09-01T12:31:18.182Z,46.39
2022-09-01T12:33:48.925Z,44.71
2022-09-01T12:36:26.426Z,44.26
2022-09-01T12:38:57.243Z,42.34
2022-09-01T12:41:32.766Z,42.61
2022-09-01T12:44:32.635Z,40.15
2022-09-01T12:47:06.885Z,41.99
2022-09-01T12:49:50.257Z,43.87
2022-09-01T12:52:26.268Z,46.57
2022-09-01T12:55:09.509Z,46.77
2022-09-01T12:57:45.308Z,46.75
2022-09-01T13:00:21.621Z,47.99
2022-09-01T13:03:08.388Z,46.69
2022-09-01T13:05:42.494Z,47.17
2022-09-01T13:08:13.357Z,46.79
2022-09-01T13:10:45.188Z,46.96
2022-09-01T13:13:15.225Z,46.88
2022-09-01T13:15:48.330Z,47.09
2022-09-01T13:18:20.101Z,47.12
2022-09-01T13:20:49.594Z,48.19
2022-09-01T13:23:18.971Z,47.19
2022-09-01T13:25:47.905Z,46.69
2022-09-01T13:28:18.795Z,46.54
2022-09-01T13:36:49.531Z,45.38
2022-09-01T13:39:19.459Z,45.27
2022-09-01T13:41:49.409Z,44.42
2022-09-01T13:44:19.558Z,45.92
2022-09-01T13:49:44.487Z,46.63
2022-09-01T13:52:28.131Z,45.55
2022-09-01T13:54:57.015Z,45.74
2022-09-01T13:57:25.941Z,46.08
2022-09-01T13:59:55.499Z,45.78
2022-09-01T14:02:26.402Z,44.89
2022-09-01T14:04:56.821Z,45.08
2022-09-01T14:07:25.785Z,44.52
2022-09-01T14:09:55.165Z,43.10
2022-09-01T14:12:24.361Z,43.70
2022-09-01T14:17:43.021Z,42.70
2022-09-01T14:20:18.538Z,41.48
2022-09-01T14:22:48.016Z,42.28
2022-09-01T14:25:18.933Z,43.23
2022-09-01T14:27:49.263Z,42.61
2022-09-01T14:30:27.867Z,41.60
2022-09-01T14:33:00.500Z,42.97
2022-09-01T14:35:33.793Z,41.95
2022-09-01T14:38:05.352Z,42.72
2022-09-01T14:40:37.182Z,42.46
2022-09-01T14:43:06.856Z,43.01
2022-09-01T14:45:36.922Z,43.43
2022-09-01T14:48:06.679Z,43.51
2022-09-01T14:50:40.768Z,43.83
2022-09-01T14:53:12.342Z,43.74
2022-09-01T14:55:44.152Z,44.51
2022-09-01T14:58:13.538Z,44.96
2022-09-01T15:00:43.001Z,45.52
2022-09-01T15:03:12.476Z,46.46
2022-09-01T15:05:43.411Z,46.37
2022-09-01T15:08:17.443Z,46.80
2022-09-01T15:10:47.183Z,47.22
2022-09-01T15:13:16.091Z,46.73
2022-09-01T15:15:45.000Z,46.36
2022-09-01T15:18:14.134Z,46.64
2022-09-01T15:20:51.034Z,47.07
2022-09-01T15:23:22.877Z,46.71
2022-09-01T15:25:54.310Z,46.76
2022-09-01T15:28:23.827Z,46.15
2022-09-01T15:30:54.257Z,44.87
2022-09-01T15:33:23.539Z,45.03
2022-09-01T15:35:53.865Z,45.78
2022-09-01T15:38:27.120Z,45.14
2022-09-01T15:41:18.612Z,45.23
2022-09-01T15:43:47.744Z,45.49
2022-09-01T15:46:17.280Z,45.56
2022-09-01T15:48:46.967Z,45.97
2022-09-01T15:51:33.864Z,46.25
2022-09-01T15:54:05.689Z,45.67
2022-09-01T15:56:34.719Z,45.26
2022-09-01T15:59:05.820Z,44.24
2022-09-01T16:01:38.990Z,44.18
2022-09-01T16:04:15.886Z,44.19
2022-09-01T16:06:48.830Z,44.62
2022-09-01T16:09:21.074Z,44.98
2022-09-01T16:11:53.570Z,45.22
2022-09-01T16:14:24.073Z,45.75
2022-09-01T16:17:03.271Z,45.41
2022-09-01T16:19:39.861Z,45.25
2022-09-01T16:22:21.078Z,45.27
2022-09-01T16:24:54.134Z,43.92
2022-09-01T16:27:31.499Z,43.76
2022-09-01T16:30:03.950Z,43.59
2022-09-01T16:32:33.745Z,43.22
2022-09-01T16:35:05.535Z,42.93
2022-09-01T16:37:47.328Z,43.16
2022-09-01T16:40:30.256Z,43.35
2022-09-01T16:43:07.760Z,42.97
2022-09-01T16:45:55.510Z,42.98
2022-09-01T16:48:32.452Z,42.83
2022-09-01T16:51:14.914Z,43.39
2022-09-01T16:54:05.484Z,44.20
2022-09-01T16:56:38.498Z,45.70
2022-09-01T16:59:28.741Z,47.12
2022-09-01T17:02:07.173Z,47.85
2022-09-01T17:04:41.726Z,48.78
2022-09-01T17:07:24.242Z,49.25
2022-09-01T17:10:04.502Z,49.30
2022-09-01T17:12:43.415Z,49.44
2022-09-01T17:15:15.002Z,49.27
2022-09-01T17:17:47.848Z,49.85
2022-09-01T17:20:19.246Z,50.09
2022-09-01T17:22:53.212Z,50.44
2022-09-01T17:25:32.771Z,50.43
2022-09-01T17:28:03.721Z,51.34
2022-09-01T17:30:46.476Z,51.61
2022-09-01T17:33:24.805Z,52.13
2022-09-01T17:36:06.198Z,52.89
2022-09-01T17:38:54.336Z,53.48
2022-09-01T17:41:34.860Z,54.23
2022-09-01T17:44:15.963Z,55.64
2022-09-01T17:46:55.850Z,56.01
2022-09-01T17:49:35.636Z,56.23
2022-09-01T17:52:16.136Z,57.85
2022-09-01T17:54:54.272Z,58.27
2022-09-01T17:57:32.087Z,58.41
2022-09-01T18:00:06.018Z,59.85
2022-09-01T18:03:26.210Z,60.40
2022-09-01T18:06:03.522Z,60.31
2022-09-01T18:08:39.333Z,60.33
2022-09-01T18:11:13.025Z,60.52
2022-09-01T18:13:53.537Z,62.83
2022-09-01T18:16:26.090Z,63.36
2022-09-01T18:18:56.612Z,63.52
2022-09-01T18:21:31.166Z,64.31
2022-09-01T18:24:14.483Z,64.20
2022-09-01T18:26:46.074Z,64.95
2022-09-01T18:29:16.532Z,64.80
2022-09-01T18:32:18.017Z,66.08
2022-09-01T18:35:08.165Z,66.66
2022-09-01T18:37:48.001Z,66.94
2022-09-01T18:40:22.723Z,67.02
2022-09-01T18:43:04.073Z,67.16
2022-09-01T18:45:44.958Z,67.15
2022-09-01T18:48:26.630Z,66.81
2022-09-01T18:51:02.320Z,65.94
2022-09-01T18:53:42.727Z,65.28
2022-09-01T18:56:22.214Z,64.72
2022-09-01T18:59:04.587Z,63.95
2022-09-01T19:01:38.009Z,63.68
2022-09-01T19:04:17.294Z,62.85
2022-09-01T19:07:02.403Z,62.27
2022-09-01T19:09:36.296Z,62.32
2022-09-01T19:12:24.544Z,62.21
2022-09-01T19:15:00.230Z,61.96
2022-09-01T19:17:57.057Z,62.00
2022-09-01T19:20:36.623Z,62.57
2022-09-01T19:23:12.075Z,63.16
2022-09-01T19:25:42.855Z,62.66
2022-09-01T19:28:20.764Z,62.72
2022-09-01T19:30:55.746Z,62.87
2022-09-01T19:33:32.697Z,63.10
2022-09-01T19:36:10.449Z,63.38
2022-09-01T19:38:39.467Z,63.48
2022-09-01T19:41:15.563Z,64.40
2022-09-01T19:43:44.813Z,64.45
2022-09-01T19:46:33.990Z,65.97
2022-09-01T19:49:15.919Z,66.05
2022-09-01T19:51:55.000Z,66.98
2022-09-01T19:54:38.597Z,67.10
2022-09-01T19:57:18.139Z,67.59
2022-09-01T19:59:59.362Z,68.98
2022-09-01T20:02:33.684Z,69.67
2022-09-01T20:05:18.086Z,70.73
2022-09-01T20:07:54.654Z,74.49
2022-09-01T20:10:56.180Z,70.63
2022-09-01T20:13:38.703Z,71.30
2022-09-01T20:16:16.369Z,71.39
2022-09-01T20:18:50.186Z,72.00
2022-09-01T20:21:23.910Z,72.97
2022-09-01T20:23:59.597Z,72.57
2022-09-01T20:26:36.084Z,73.64
2022-09-01T20:29:16.666Z,74.71
2022-09-01T20:31:50.813Z,74.79
2022-09-01T20:34:29.393Z,75.67
2022-09-01T20:37:05.226Z,75.97
2022-09-01T20:39:59.395Z,76.58
2022-09-01T20:42:38.417Z,77.06
2022-09-01T20:45:14.086Z,77.82
2022-09-01T20:47:46.249Z,79.20
2022-09-01T20:50:16.141Z,79.79
2022-09-01T20:53:00.939Z,79.43
2022-09-01T20:55:38.403Z,81.54
2022-09-01T20:58:13.822Z,81.23
2022-09-01T21:00:49.942Z,82.12
2022-09-01T21:03:35.628Z,82.45
2022-09-01T21:06:10.215Z,82.57
2022-09-01T21:08:49.999Z,81.93
2022-09-01T21:11:36.146Z,82.10
2022-09-01T21:14:18.633Z,82.86
2022-09-01T21:17:00.005Z,83.61
2022-09-01T21:19:36.373Z,84.78
2022-09-01T21:22:09.238Z,85.12
2022-09-01T21:24:42.181Z,85.27
2022-09-01T21:27:16.173Z,85.53
2022-09-01T21:29:58.385Z,84.99
2022-09-01T21:32:29.310Z,85.69
2022-09-01T21:34:59.151Z,85.25
2022-09-01T21:37:30.093Z,84.93
2022-09-01T21:40:00.691Z,88.37
2022-09-01T21:42:34.675Z,87.51
2022-09-01T21:45:06.144Z,87.30
2022-09-01T21:47:35.780Z,87.87
2022-09-01T21:50:05.636Z,87.05
2022-09-01T21:52:34.729Z,87.98
2022-09-01T21:55:05.333Z,87.14
2022-09-01T21:57:34.453Z,87.37
2022-09-01T22:00:05.609Z,87.64
2022-09-01T22:02:43.773Z,87.40
2022-09-01T22:05:13.884Z,87.32
2022-09-01T22:07:46.644Z,87.94
2022-09-01T22:10:21.071Z,87.42
2022-09-01T22:12:50.937Z,87.58
2022-09-01T22:15:22.912Z,87.47
2022-09-01T22:17:52.689Z,88.97
2022-09-01T22:20:24.031Z,88.39
2022-09-01T22:22:56.854Z,88.92
2022-09-01T22:25:28.163Z,91.14
2022-09-01T22:27:58.677Z,90.79
2022-09-01T22:30:28.342Z,93.51
2022-09-01T22:32:57.083Z,95.15
2022-09-01T22:35:26.026Z,96.17
2022-09-01T22:37:55.038Z,99.26
2022-09-01T22:40:24.039Z,98.82
2022-09-01T22:42:54.434Z,98.64
2022-09-01T22:45:23.640Z,97.40
2022-09-01T22:47:52.768Z,99.59
2022-09-01T22:50:22.231Z,100.00
2022-09-01T22:52:51.153Z,100.00
2022-09-01T22:55:20.196Z,99.97
2022-09-01T22:57:49.156Z,99.33
2022-09-01T23:00:19.549Z,98.62
2022-09-01T23:02:48.618Z,99.03
2022-09-01T23:05:18.649Z,99.70
2022-09-01T23:07:47.665Z,99.50
2022-09-01T23:10:16.831Z,99.84
2022-09-01T23:12:45.424Z,99.83
2022-09-01T23:15:14.157Z,99.82
2022-09-01T23:17:44.499Z,99.70
2022-09-01T23:20:15.443Z,100.00
2022-09-01T23:22:46.164Z,99.88
2022-09-01T23:25:17.760Z,99.81
2022-09-01T23:27:47.221Z,100.00
2022-09-01T23:30:17.327Z,100.00
2022-09-01T23:32:47.594Z,100.00
2022-09-01T23:35:16.468Z,100.00
2022-09-01T23:37:45.554Z,100.00
2022-09-01T23:40:14.700Z,100.00
2022-09-01T23:42:44.005Z,100.00
2022-09-01T23:45:13.590Z,100.00
2022-09-01T23:47:42.472Z,100.00
2022-09-01T23:50:13.370Z,100.00
2022-09-01T23:52:42.268Z,100.00
2022-09-01T23:55:11.679Z,100.00
2022-09-01T23:57:40.656Z,100.00
